Terminal Aerodrome Forecast
Issued by NWS Charleston, SC

Home | Current Version | Previous Version | Text Only | Print | Product List | Glossary On
Versions: 1 2 3 4 5 6 7 8 9 10 11 12 13 14
000
FTUS42 KCHS 210840 AAA
TAFCHS
TAF AMD
KCHS 210840Z 2109/2206 VRB02KT 6SM BR FEW060
      TEMPO 2109/2113 4SM BR
     FM211700 17008KT P6SM SCT050
     FM220000 VRB03KT P6SM FEW050=

USA.gov is the U.S. government's official web portal to all federal, state and local government web resources and services.